Muenster, TX (76252)

10:33 PM CST on February 13, 2016 (GMT -0600)
Katy Lake | | Change Station
CLOSE
Current Station
Personal Weather Station
Location: Saint Jo, TX
Elevation: 1040 ft
Nearby Weather Stations

Elev 1040 ft 33.71 °N, 97.51 °W | Updated 10 minutes ago

Clear
Clear
52.7 °F
Feels Like 52.7 °F
N
8.3
Wind Variable Wind from South

Today
High -- | Low -- °F
--% Chance of Precip.
Yesterday
High -- | Low -- °F
Precip. -- in
Pressure 30.10 in
Visibility 10.0 miles
Clouds Clear
Dew Point 40 °F
Humidity 61%
Rainfall 0.00 in
Snow Depth Not available.
7:16 AM 6:11 PM
Waxing Crescent, 37% visible
METAR KGLE 140415Z AUTO 14012KT 10SM CLR 11/04 A3010 RMK AO2 T01100036
Pressure 30.10 in
Visibility 10.0 miles
Clouds Clear
Dew Point 40 °F
Humidity 61%
Rainfall 0.00 in
Snow Depth Not available.
7:16 AM 6:11 PM
Waxing Crescent, 37% visible
METAR KGLE 140415Z AUTO 14012KT 10SM CLR 11/04 A3010 RMK AO2 T01100036

10-Day Weather Forecast

Almanac

Astronomy

Feb. 13, 2016 Rise Set
Actual Time
Civil Twilight
Nautical Twilight
Astronomical Twilight
Moon
Length of Visible Light
Length of Day
Tomorrow will be .
, % of the Moon is Illuminated

Today's Extremes

State Highs State Lows

Community

WunderPhotos

Upload Photos

1,892,746 photos uploaded!

WunderBlog® & News

Nearby

Air Quality

  Air Quality AQ Index Pollutant
Not available.

Snow Depth

Station Depth Elevation

Earthquake Activity

City Distance Mag. Time & Date
Minimum magnitude displayed is 2.5.

Coastal Water Temperatures

Place Temperature

Stations

Nearby Weather Stations

Station Location Temp. Windchill Dew Point Humidity Wind Precip. Elev Updated Type
                   

Watches & Warnings

There are currently no watches in effect.